Time;durP1;ratioP1;P1;durP2;ratioP2;P2;SDS_P1;SDS_P2;PMS_P1;PMS_P2;Temp;Humidity;BMP_temperature;BMP_pressure;BME280_temperature;BME280_humidity;BME280_pressure;Samples;Min_cycle;Max_cycle;Signal;HPM_P1;HPM_P2
2023/06/26 00:01:02;;;;;;;10.20;9.10;;;17.20;99.90;;;;;;5109343;28;20082;-51
2023/06/26 00:03:28;;;;;;;11.65;9.13;;;17.20;99.90;;;;;;5082122;28;20082;-53
2023/06/26 00:05:54;;;;;;;9.80;8.73;;;17.10;99.90;;;;;;5107685;28;20023;-50
2023/06/26 00:08:20;;;;;;;8.75;7.43;;;17.10;99.90;;;;;;5083017;28;20574;-53
2023/06/26 00:10:46;;;;;;;13.82;9.85;;;17.10;99.90;;;;;;5071328;28;20027;-51
2023/06/26 00:13:12;;;;;;;11.50;9.13;;;17.10;99.90;;;;;;5096240;28;20396;-54
2023/06/26 00:15:37;;;;;;;10.30;8.43;;;17.00;99.90;;;;;;5071450;28;20040;-53
2023/06/26 00:18:03;;;;;;;12.75;10.48;;;17.00;99.90;;;;;;5097347;28;20020;-50
2023/06/26 00:20:29;;;;;;;9.93;8.93;;;17.00;99.90;;;;;;5071162;28;20448;-53
2023/06/26 00:22:56;;;;;;;12.32;10.23;;;16.90;99.90;;;;;;5100918;28;20028;-53
2023/06/26 00:25:22;;;;;;;15.63;10.27;;;16.90;99.90;;;;;;5070788;28;20385;-50
2023/06/26 00:27:47;;;;;;;10.57;9.15;;;17.00;99.90;;;;;;5102655;28;20246;-52
2023/06/26 00:30:13;;;;;;;11.25;8.73;;;16.90;99.90;;;;;;5096796;28;20036;-53
2023/06/26 00:32:38;;;;;;;11.25;9.38;;;16.90;99.90;;;;;;5086842;28;20049;-47
2023/06/26 00:35:04;;;;;;;11.23;9.45;;;16.90;99.90;;;;;;5070989;28;20025;-51
2023/06/26 00:37:29;;;;;;;13.05;8.35;;;16.90;99.90;;;;;;5106320;28;20031;-54
2023/06/26 00:39:55;;;;;;;11.35;8.57;;;16.90;99.90;;;;;;5070622;28;20037;-55
2023/06/26 00:42:20;;;;;;;9.77;8.70;;;16.90;99.90;;;;;;5109709;28;20035;-53
2023/06/26 00:44:46;;;;;;;13.07;9.07;;;16.90;99.90;;;;;;5069829;28;20028;-53
2023/06/26 00:47:15;;;;;;;11.98;8.93;;;16.90;99.90;;;;;;5109634;28;20106;-53
2023/06/26 00:49:41;;;;;;;10.50;8.98;;;16.80;99.90;;;;;;5070256;28;20078;-52
2023/06/26 00:52:06;;;;;;;10.90;9.27;;;16.80;99.90;;;;;;5109139;28;20040;-52
2023/06/26 00:54:32;;;;;;;11.02;8.75;;;16.80;99.90;;;;;;5072074;28;20067;-49
2023/06/26 00:56:57;;;;;;;12.55;8.60;;;16.80;99.90;;;;;;5109255;28;20028;-50
2023/06/26 00:59:23;;;;;;;12.35;9.60;;;16.80;99.90;;;;;;5072795;28;20039;-52
2023/06/26 01:01:48;;;;;;;11.43;9.07;;;16.80;99.90;;;;;;5109388;28;20045;-54
2023/06/26 01:04:17;;;;;;;11.95;8.55;;;16.80;99.90;;;;;;5074171;28;20028;-53
2023/06/26 01:06:51;;;;;;;9.52;8.52;;;16.80;99.90;;;;;;5106911;28;20286;-52
2023/06/26 01:09:22;;;;;;;10.77;8.60;;;16.80;99.90;;;;;;5073178;28;20036;-51
2023/06/26 01:11:47;;;;;;;10.43;8.85;;;16.70;99.90;;;;;;5069685;28;20520;-52
2023/06/26 01:14:13;;;;;;;9.80;8.48;;;16.80;99.90;;;;;;5078020;28;20035;-52
2023/06/26 01:16:40;;;;;;;8.82;7.93;;;16.70;99.90;;;;;;5108879;28;20047;-54
2023/06/26 01:19:24;;;;;;;9.52;7.97;;;16.70;99.90;;;;;;5075066;28;20035;-50
2023/06/26 01:21:57;;;;;;;9.57;8.57;;;16.70;99.90;;;;;;5069525;28;20024;-53
2023/06/26 01:24:27;;;;;;;9.75;8.13;;;16.80;99.90;;;;;;5067730;28;20055;-52
2023/06/26 01:26:53;;;;;;;11.85;9.65;;;16.80;99.90;;;;;;5069396;28;20032;-52
2023/06/26 01:29:19;;;;;;;12.73;9.63;;;16.80;99.90;;;;;;5086434;28;20458;-51
2023/06/26 01:31:48;;;;;;;10.15;8.57;;;16.80;99.90;;;;;;5110021;27;20123;-54
2023/06/26 01:34:15;;;;;;;14.15;9.05;;;16.80;99.90;;;;;;5073251;28;20028;-54
2023/06/26 01:36:41;;;;;;;9.77;8.68;;;16.70;99.90;;;;;;5109126;28;20159;-52
2023/06/26 01:39:07;;;;;;;11.40;8.77;;;16.70;99.90;;;;;;5074618;28;20028;-55
2023/06/26 01:41:34;;;;;;;11.60;8.48;;;16.80;99.90;;;;;;5108910;28;20035;-52
2023/06/26 01:44:29;;;;;;;9.57;7.75;;;16.80;99.90;;;;;;5074175;28;20850;-52
2023/06/26 01:47:18;;;;;;;9.48;7.97;;;16.80;99.90;;;;;;5069721;28;20024;-55
2023/06/26 01:49:48;;;;;;;12.38;8.90;;;16.80;99.90;;;;;;5067309;28;20048;-55
2023/06/26 01:52:28;;;;;;;11.82;8.90;;;16.80;99.90;;;;;;5109401;28;20074;-54
2023/06/26 01:55:13;;;;;;;12.60;8.65;;;16.80;99.90;;;;;;5069249;28;20028;-56
2023/06/26 01:57:39;;;;;;;12.55;8.35;;;16.80;99.90;;;;;;5067127;28;20060;-52
2023/06/26 02:00:09;;;;;;;11.00;8.48;;;16.80;99.90;;;;;;5069281;28;20613;-52
2023/06/26 02:02:36;;;;;;;10.05;8.30;;;16.80;99.90;;;;;;5106500;28;20647;-52
2023/06/26 02:05:01;;;;;;;11.25;8.60;;;16.80;99.90;;;;;;5090491;28;20027;-53
2023/06/26 02:07:27;;;;;;;10.48;8.57;;;16.80;99.90;;;;;;5109720;28;20112;-53
2023/06/26 02:09:52;;;;;;;11.75;8.75;;;16.80;99.90;;;;;;5066926;28;20048;-51
2023/06/26 02:12:18;;;;;;;10.45;9.30;;;16.90;99.90;;;;;;5107890;28;20040;-50
2023/06/26 02:14:43;;;;;;;9.90;7.90;;;16.90;99.90;;;;;;5068973;28;20029;-53
2023/06/26 02:17:09;;;;;;;9.90;8.85;;;16.90;99.90;;;;;;5107823;28;20028;-51
2023/06/26 02:19:34;;;;;;;14.70;8.52;;;16.90;99.90;;;;;;5070199;28;20025;-53
2023/06/26 02:22:00;;;;;;;10.70;8.13;;;17.00;99.90;;;;;;5107882;28;20032;-48
2023/06/26 02:24:29;;;;;;;7.75;6.95;;;17.00;99.90;;;;;;5071002;28;20562;-52
2023/06/26 02:26:55;;;;;;;11.48;8.43;;;17.10;99.90;;;;;;5108885;28;20100;-50
2023/06/26 02:29:21;;;;;;;9.90;8.90;;;17.10;99.90;;;;;;5083026;28;20039;-51
2023/06/26 02:31:46;;;;;;;10.60;8.50;;;17.10;99.90;;;;;;5108957;28;20020;-53
2023/06/26 02:34:11;;;;;;;9.45;8.43;;;17.10;99.90;;;;;;5073201;28;20111;-50
2023/06/26 02:36:37;;;;;;;11.57;9.02;;;17.20;99.90;;;;;;5107509;28;20484;-52
2023/06/26 02:39:02;;;;;;;11.02;7.57;;;17.20;99.90;;;;;;5074134;28;20090;-51
2023/06/26 02:41:28;;;;;;;9.80;8.75;;;17.20;99.90;;;;;;5107448;28;20032;-54
2023/06/26 02:43:53;;;;;;;9.27;8.27;;;17.30;99.90;;;;;;5075076;28;20048;-53
2023/06/26 02:46:19;;;;;;;9.43;8.13;;;17.30;99.90;;;;;;5107705;28;20092;-52
2023/06/26 02:48:44;;;;;;;8.90;7.53;;;17.30;99.90;;;;;;5087103;28;20056;-51
2023/06/26 02:51:10;;;;;;;10.73;8.32;;;17.30;99.90;;;;;;5108133;28;20036;-53
2023/06/26 02:53:35;;;;;;;10.52;8.45;;;17.30;99.90;;;;;;5077876;28;20062;-52
2023/06/26 02:56:01;;;;;;;8.80;7.85;;;17.30;99.90;;;;;;5107159;28;20036;-53
2023/06/26 02:58:26;;;;;;;10.57;8.60;;;17.40;99.90;;;;;;5087163;28;20405;-50
2023/06/26 03:00:53;;;;;;;10.05;8.30;;;17.40;99.90;;;;;;5113577;28;20032;-51
2023/06/26 03:03:19;;;;;;;11.75;9.32;;;17.40;99.90;;;;;;5086408;27;20025;-55
2023/06/26 03:05:44;;;;;;;11.07;9.60;;;17.40;99.90;;;;;;5089780;28;20177;-52
2023/06/26 03:08:10;;;;;;;10.85;8.00;;;17.40;99.90;;;;;;5087750;27;20024;-54
2023/06/26 03:10:35;;;;;;;13.10;9.30;;;17.40;99.90;;;;;;5074823;28;20036;-54
2023/06/26 03:13:01;;;;;;;12.75;9.80;;;17.50;99.90;;;;;;5102795;28;20017;-54
2023/06/26 03:15:26;;;;;;;9.07;8.18;;;17.50;99.90;;;;;;5074802;28;20150;-55
2023/06/26 03:17:52;;;;;;;11.45;8.80;;;17.50;99.90;;;;;;5105485;28;20085;-52
2023/06/26 03:20:17;;;;;;;10.65;8.43;;;17.50;99.90;;;;;;5074857;28;20384;-53
2023/06/26 03:22:43;;;;;;;9.55;8.45;;;17.50;99.90;;;;;;5107669;28;20034;-53
2023/06/26 03:25:08;;;;;;;8.95;8.05;;;17.50;99.90;;;;;;5074935;28;20113;-51
2023/06/26 03:27:34;;;;;;;9.77;8.77;;;17.60;99.90;;;;;;5110035;28;20035;-54
2023/06/26 03:30:00;;;;;;;11.85;8.38;;;17.60;99.90;;;;;;5097025;28;20043;-51
2023/06/26 03:32:25;;;;;;;10.90;9.52;;;17.70;99.90;;;;;;5091680;27;20039;-52
2023/06/26 03:34:52;;;;;;;9.30;8.30;;;17.70;99.90;;;;;;5094922;28;20023;-52
2023/06/26 03:37:18;;;;;;;11.30;9.15;;;17.70;99.90;;;;;;5092952;28;20408;-49
2023/06/26 03:39:43;;;;;;;11.77;8.80;;;17.80;99.90;;;;;;5114066;28;20491;-50
2023/06/26 03:42:09;;;;;;;11.38;9.60;;;17.80;99.90;;;;;;5084561;28;20031;-53
2023/06/26 03:44:34;;;;;;;10.88;8.65;;;17.80;99.90;;;;;;5075543;28;20512;-53
2023/06/26 03:47:00;;;;;;;10.38;9.27;;;17.90;99.90;;;;;;5113669;27;20058;-49
2023/06/26 03:49:25;;;;;;;13.05;10.07;;;17.90;99.90;;;;;;5076748;28;20550;-49
2023/06/26 03:51:51;;;;;;;10.95;8.55;;;17.90;99.90;;;;;;5113803;28;20032;-53
2023/06/26 03:54:16;;;;;;;12.15;9.80;;;17.90;99.90;;;;;;5078039;28;20032;-54
2023/06/26 03:56:42;;;;;;;12.35;9.55;;;18.00;99.90;;;;;;5114018;28;20042;-53
2023/06/26 03:59:07;;;;;;;12.88;10.25;;;18.10;99.90;;;;;;5078878;28;20101;-52
2023/06/26 04:01:33;;;;;;;9.43;7.97;;;18.20;99.90;;;;;;5113982;28;20042;-52
2023/06/26 04:04:00;;;;;;;10.55;9.45;;;18.30;99.90;;;;;;5080344;27;20487;-56
2023/06/26 04:06:25;;;;;;;11.80;9.32;;;18.40;99.90;;;;;;5108599;28;20039;-55
2023/06/26 04:08:51;;;;;;;11.38;9.50;;;18.50;99.90;;;;;;5081279;28;20036;-49
2023/06/26 04:11:16;;;;;;;14.07;9.23;;;18.60;99.90;;;;;;5112244;27;20086;-53
2023/06/26 04:13:42;;;;;;;13.93;9.65;;;18.80;99.90;;;;;;5079058;28;20037;-50
2023/06/26 04:16:07;;;;;;;9.35;8.43;;;18.90;99.90;;;;;;5110578;28;20028;-52
2023/06/26 04:18:32;;;;;;;11.50;9.05;;;19.00;99.90;;;;;;5080339;28;20044;-52
2023/06/26 04:21:13;;;;;;;10.60;8.77;;;19.10;99.90;;;;;;5110406;28;20069;-53
2023/06/26 04:23:40;;;;;;;12.27;10.55;;;19.30;99.90;;;;;;5088171;28;20093;-53
2023/06/26 04:26:06;;;;;;;10.25;9.18;;;19.40;99.90;;;;;;5111141;28;20068;-49
2023/06/26 04:28:33;;;;;;;12.30;10.63;;;19.40;99.90;;;;;;5087125;28;20090;-52
2023/06/26 04:31:00;;;;;;;11.15;9.98;;;19.50;99.90;;;;;;5090741;28;20143;-53
2023/06/26 04:33:26;;;;;;;11.40;9.30;;;19.60;99.90;;;;;;5108687;28;20110;-52
2023/06/26 04:35:52;;;;;;;12.40;9.80;;;19.60;99.90;;;;;;5091674;27;20186;-53
2023/06/26 04:38:18;;;;;;;12.90;10.73;;;19.80;99.90;;;;;;5093412;28;20033;-50
2023/06/26 04:40:44;;;;;;;11.75;9.77;;;19.90;99.90;;;;;;5070975;28;20047;-53
2023/06/26 04:43:10;;;;;;;11.45;10.25;;;20.10;99.90;;;;;;5094879;28;20016;-54
2023/06/26 04:45:35;;;;;;;12.27;9.07;;;20.20;99.90;;;;;;5070707;28;20421;-49
2023/06/26 04:48:01;;;;;;;10.25;9.10;;;20.40;99.90;;;;;;5097414;28;20032;-50
2023/06/26 04:50:28;;;;;;;12.20;9.48;;;20.60;99.90;;;;;;5074339;28;20031;-49
2023/06/26 04:52:54;;;;;;;10.50;8.57;;;20.80;99.90;;;;;;5100468;28;20399;-48
2023/06/26 04:55:21;;;;;;;10.77;9.65;;;21.10;99.90;;;;;;5089935;28;20472;-52
2023/06/26 04:57:46;;;;;;;10.25;9.15;;;21.40;99.90;;;;;;5090359;28;20035;-51
2023/06/26 05:00:13;;;;;;;10.20;8.25;;;21.60;99.90;;;;;;5087589;28;20020;-48
2023/06/26 05:02:38;;;;;;;9.70;8.65;;;22.00;99.90;;;;;;5108180;28;20027;-54
2023/06/26 05:05:04;;;;;;;11.23;9.43;;;22.30;99.90;;;;;;5098441;28;20030;-51
2023/06/26 05:07:30;;;;;;;11.57;9.10;;;22.50;99.90;;;;;;5089666;28;20083;-52
2023/06/26 05:09:55;;;;;;;9.77;8.77;;;22.70;99.90;;;;;;5096163;28;20020;-52
2023/06/26 05:12:21;;;;;;;9.70;8.35;;;22.90;99.90;;;;;;5089928;28;20028;-51
2023/06/26 05:14:46;;;;;;;10.20;8.50;;;23.40;99.90;;;;;;5107393;28;20047;-50
2023/06/26 05:17:14;;;;;;;10.13;8.20;;;24.30;99.90;;;;;;5109406;28;20047;-49
2023/06/26 05:19:39;;;;;;;8.50;7.45;;;25.30;96.90;;;;;;5093804;28;20063;-52
2023/06/26 05:22:09;;;;;;;9.10;7.80;;;26.10;94.00;;;;;;5108966;28;20107;-53
2023/06/26 05:24:38;;;;;;;8.55;7.72;;;26.30;92.20;;;;;;5092568;28;20395;-51
2023/06/26 05:27:05;;;;;;;7.32;6.72;;;27.20;89.10;;;;;;5108868;28;20079;-53
2023/06/26 05:29:31;;;;;;;8.13;7.30;;;28.00;86.10;;;;;;5083861;28;20036;-51
2023/06/26 05:31:57;;;;;;;7.80;7.10;;;28.90;80.70;;;;;;5068262;28;20085;-53
2023/06/26 05:34:24;;;;;;;8.70;7.80;;;30.00;76.70;;;;;;5105760;28;20028;-47
2023/06/26 05:36:57;;;;;;;9.95;7.50;;;30.90;71.90;;;;;;5109262;28;20062;-51
2023/06/26 05:39:22;;;;;;;9.00;6.95;;;31.10;63.00;;;;;;5074956;28;20031;-50
2023/06/26 05:41:48;;;;;;;9.23;7.32;;;30.90;68.40;;;;;;5108616;28;20027;-50
2023/06/26 05:44:14;;;;;;;8.90;7.32;;;30.50;67.40;;;;;;5090053;28;20023;-54
2023/06/26 05:46:40;;;;;;;9.93;7.93;;;30.20;65.80;;;;;;5109082;28;20022;-49
2023/06/26 05:49:05;;;;;;;9.15;8.25;;;29.90;65.00;;;;;;5088534;28;20104;-52
2023/06/26 05:51:31;;;;;;;8.75;7.85;;;29.60;63.60;;;;;;5108646;28;20106;-49
2023/06/26 05:53:56;;;;;;;8.25;7.38;;;29.30;62.30;;;;;;5087323;28;20039;-52
2023/06/26 05:56:22;;;;;;;9.40;7.47;;;29.20;62.60;;;;;;5108333;28;20047;-50
2023/06/26 05:58:48;;;;;;;8.57;7.32;;;29.00;60.90;;;;;;5088914;28;20031;-49
2023/06/26 06:01:14;;;;;;;7.90;7.10;;;29.00;58.30;;;;;;5106060;28;20437;-51
2023/06/26 06:03:40;;;;;;;9.32;6.55;;;29.40;57.70;;;;;;5071742;28;20074;-51
2023/06/26 06:06:06;;;;;;;7.53;6.82;;;30.30;55.80;;;;;;5075070;28;20036;-51
2023/06/26 06:08:31;;;;;;;7.63;6.82;;;31.10;53.30;;;;;;5108020;28;20024;-47
2023/06/26 06:10:57;;;;;;;7.68;6.93;;;32.60;49.10;;;;;;5075805;28;20029;-48
2023/06/26 06:13:22;;;;;;;6.68;6.00;;;33.60;44.50;;;;;;5107092;28;20540;-53
2023/06/26 06:15:49;;;;;;;6.65;5.90;;;33.80;41.50;;;;;;5077066;28;20055;-48
2023/06/26 06:18:14;;;;;;;7.28;6.57;;;34.00;39.70;;;;;;5091976;28;20049;-51
2023/06/26 06:20:40;;;;;;;6.47;5.88;;;34.60;37.50;;;;;;5083196;28;20125;-52
2023/06/26 06:23:06;;;;;;;6.57;5.97;;;35.50;34.60;;;;;;5078404;28;20147;-53
2023/06/26 06:25:31;;;;;;;7.28;5.50;;;35.70;29.70;;;;;;5074455;28;20445;-49
2023/06/26 06:27:57;;;;;;;5.70;5.20;;;35.00;31.60;;;;;;5099363;28;20099;-53
2023/06/26 06:30:22;;;;;;;5.35;4.95;;;34.60;31.30;;;;;;5093710;28;20049;-51
2023/06/26 06:32:50;;;;;;;6.20;5.22;;;35.20;29.30;;;;;;5069922;28;20487;-52
2023/06/26 06:35:17;;;;;;;5.38;4.88;;;36.40;27.20;;;;;;5103926;28;20035;-50
2023/06/26 06:37:42;;;;;;;5.03;4.55;;;37.60;25.60;;;;;;5077340;28;20040;-49
2023/06/26 06:40:10;;;;;;;5.43;4.93;;;38.20;23.40;;;;;;5072107;28;20063;-51
2023/06/26 06:42:35;;;;;;;5.28;4.80;;;39.00;20.20;;;;;;5078917;28;20551;-51
2023/06/26 06:45:03;;;;;;;5.93;5.30;;;39.70;18.90;;;;;;5081021;28;20025;-54
2023/06/26 06:47:28;;;;;;;5.70;5.18;;;40.10;15.60;;;;;;5102448;28;20054;-53
2023/06/26 06:49:54;;;;;;;5.30;4.82;;;40.20;15.00;;;;;;5085676;28;20396;-51
2023/06/26 06:52:19;;;;;;;6.60;5.22;;;40.60;13.90;;;;;;5094010;28;20039;-52
2023/06/26 06:54:55;;;;;;;6.45;5.03;;;41.00;13.00;;;;;;5071641;28;20032;-50
2023/06/26 06:57:21;;;;;;;4.57;4.18;;;41.80;7.90;;;;;;5094058;28;20028;-53
2023/06/26 06:59:48;;;;;;;5.35;4.85;;;42.10;10.40;;;;;;5068327;28;20502;-54
2023/06/26 07:02:14;;;;;;;4.70;4.35;;;42.40;9.80;;;;;;5088999;28;20395;-53
2023/06/26 07:04:39;;;;;;;6.47;4.90;;;42.70;8.90;;;;;;5087223;28;20078;-48
2023/06/26 07:07:05;;;;;;;5.00;4.60;;;42.90;7.30;;;;;;5071175;28;20123;-50
2023/06/26 07:09:30;;;;;;;5.60;5.00;;;42.90;6.20;;;;;;5078608;28;20020;-54
2023/06/26 07:11:56;;;;;;;5.85;4.60;;;43.20;6.60;;;;;;5089928;28;20111;-52
2023/06/26 07:14:21;;;;;;;4.53;4.13;;;43.70;6.00;;;;;;5076075;28;20032;-53
2023/06/26 07:16:47;;;;;;;4.72;4.32;;;44.00;5.70;;;;;;5090676;28;20032;-54
2023/06/26 07:19:12;;;;;;;4.97;4.57;;;44.40;5.20;;;;;;5070212;28;20475;-54
2023/06/26 07:21:37;;;;;;;4.53;4.13;;;44.70;4.60;;;;;;5080545;28;20024;-49
2023/06/26 07:24:03;;;;;;;5.10;4.63;;;44.90;3.90;;;;;;5071503;28;20095;-54
2023/06/26 07:26:28;;;;;;;6.75;3.88;;;45.40;3.60;;;;;;5073192;28;20424;-49
2023/06/26 07:28:56;;;;;;;5.63;4.45;;;45.60;3.00;;;;;;5084753;28;20079;-49
2023/06/26 07:31:22;;;;;;;5.78;4.28;;;45.80;2.70;;;;;;5065478;28;20095;-51
2023/06/26 07:33:47;;;;;;;4.07;3.67;;;45.90;2.30;;;;;;5082588;28;20028;-49
2023/06/26 07:36:13;;;;;;;4.70;4.03;;;46.20;1.90;;;;;;5076969;28;20043;-48
2023/06/26 07:38:38;;;;;;;4.43;4.03;;;46.40;1.40;;;;;;5090736;28;20570;-51
2023/06/26 07:41:03;;;;;;;5.07;3.88;;;46.60;1.00;;;;;;5065352;28;20035;-52
2023/06/26 07:43:29;;;;;;;6.97;4.00;;;46.70;1.00;;;;;;5075653;28;20029;-49
2023/06/26 07:45:54;;;;;;;4.22;3.90;;;47.10;1.00;;;;;;5083110;28;20133;-51
2023/06/26 07:48:20;;;;;;;3.97;3.55;;;47.20;1.00;;;;;;5099542;28;20044;-50
2023/06/26 07:50:45;;;;;;;5.82;4.60;;;47.40;1.00;;;;;;5074575;28;20032;-46
2023/06/26 07:53:11;;;;;;;4.43;3.97;;;46.90;1.00;;;;;;5075172;28;20036;-48
2023/06/26 07:55:36;;;;;;;4.38;3.85;;;46.50;1.00;;;;;;5076045;28;20020;-51
2023/06/26 07:58:02;;;;;;;4.93;4.00;;;46.40;1.00;;;;;;5082862;28;20748;-50
2023/06/26 08:00:27;;;;;;;4.00;3.70;;;45.70;1.00;;;;;;5078228;28;20060;-51
2023/06/26 08:02:53;;;;;;;3.92;3.63;;;45.60;1.00;;;;;;5107256;28;20035;-50
2023/06/26 08:05:18;;;;;;;3.50;3.20;;;45.40;1.00;;;;;;5083510;28;20483;-51
2023/06/26 08:07:44;;;;;;;4.05;3.75;;;45.70;1.00;;;;;;5088157;28;20488;-51
2023/06/26 08:10:10;;;;;;;4.45;3.78;;;45.70;1.00;;;;;;5084153;28;20040;-48
2023/06/26 08:12:40;;;;;;;4.53;3.70;;;45.30;1.00;;;;;;5098322;28;20056;-52
2023/06/26 08:15:06;;;;;;;4.75;4.35;;;45.40;1.00;;;;;;5074522;28;20476;-50
2023/06/26 08:17:31;;;;;;;4.43;3.63;;;45.40;1.00;;;;;;5077252;28;20036;-48
2023/06/26 08:19:57;;;;;;;4.35;3.83;;;44.90;1.00;;;;;;5108227;28;20042;-51
2023/06/26 08:22:23;;;;;;;3.83;3.30;;;44.80;1.00;;;;;;5077628;28;20024;-50
2023/06/26 08:24:49;;;;;;;4.05;3.75;;;44.90;1.00;;;;;;5099791;28;20032;-49
2023/06/26 08:27:14;;;;;;;4.32;4.00;;;44.50;1.00;;;;;;5097663;28;20065;-52
2023/06/26 08:29:40;;;;;;;4.97;4.57;;;44.40;1.00;;;;;;5098484;28;20123;-48
2023/06/26 08:32:05;;;;;;;5.90;4.57;;;43.70;1.00;;;;;;5091301;28;20123;-50
2023/06/26 08:34:31;;;;;;;4.10;3.70;;;42.80;1.00;;;;;;5066080;28;20052;-49
2023/06/26 08:36:56;;;;;;;3.95;3.65;;;42.80;1.00;;;;;;5073297;28;20039;-52
2023/06/26 08:39:22;;;;;;;4.43;3.60;;;42.50;1.00;;;;;;5088942;28;20059;-52
2023/06/26 08:41:47;;;;;;;5.10;4.05;;;42.20;1.00;;;;;;5078026;28;20569;-48
2023/06/26 08:44:13;;;;;;;4.25;3.85;;;42.20;1.00;;;;;;5086388;28;20031;-49
2023/06/26 08:46:38;;;;;;;6.93;4.53;;;41.90;1.00;;;;;;5078294;28;20111;-52
2023/06/26 08:49:17;;;;;;;5.07;4.57;;;41.00;1.00;;;;;;5077243;28;20398;-53
2023/06/26 08:51:50;;;;;;;4.20;3.90;;;40.50;1.00;;;;;;5070444;28;20075;-49
2023/06/26 08:54:19;;;;;;;5.38;4.90;;;40.00;1.00;;;;;;5074033;28;20535;-48
2023/06/26 08:56:48;;;;;;;4.70;4.20;;;39.00;1.80;;;;;;5081213;28;20526;-50
2023/06/26 08:59:14;;;;;;;3.78;3.47;;;38.80;2.00;;;;;;5074850;28;20066;-50
2023/06/26 09:01:40;;;;;;;4.32;3.70;;;38.70;2.40;;;;;;5080969;28;20020;-48
2023/06/26 09:04:06;;;;;;;4.00;3.70;;;38.40;2.50;;;;;;5071260;28;20032;-53
2023/06/26 09:06:32;;;;;;;4.00;3.70;;;38.40;2.70;;;;;;5081539;28;20031;-49
2023/06/26 09:08:58;;;;;;;3.80;3.50;;;37.90;2.70;;;;;;5073547;28;20115;-52
2023/06/26 09:11:23;;;;;;;3.25;3.05;;;37.60;2.50;;;;;;5086367;28;20039;-48
2023/06/26 09:13:49;;;;;;;3.50;3.20;;;37.70;2.50;;;;;;5066705;28;20037;-53
2023/06/26 09:16:14;;;;;;;3.97;3.65;;;37.70;2.80;;;;;;5077383;28;20036;-48
2023/06/26 09:18:42;;;;;;;3.53;3.20;;;37.40;2.70;;;;;;5088758;28;20055;-52
2023/06/26 09:21:09;;;;;;;3.83;3.53;;;37.30;3.60;;;;;;5093812;28;20035;-52
2023/06/26 09:23:35;;;;;;;3.92;3.63;;;37.00;3.30;;;;;;5083159;28;20037;-51
2023/06/26 09:26:05;;;;;;;3.80;3.50;;;37.20;3.50;;;;;;5095726;28;20111;-51
2023/06/26 09:28:33;;;;;;;3.80;3.50;;;36.80;3.20;;;;;;5067769;28;20063;-53
2023/06/26 09:31:03;;;;;;;4.18;3.17;;;36.70;3.60;;;;;;5108619;28;20093;-51
2023/06/26 09:33:34;;;;;;;4.43;3.30;;;36.80;3.70;;;;;;5073956;28;20098;-48
2023/06/26 09:36:00;;;;;;;4.22;3.83;;;36.80;3.40;;;;;;5086142;28;20065;-50
2023/06/26 09:38:26;;;;;;;6.03;3.83;;;36.50;3.60;;;;;;5078669;28;20059;-49
2023/06/26 09:40:52;;;;;;;4.65;3.95;;;36.40;3.70;;;;;;5108962;28;20061;-50
2023/06/26 09:43:18;;;;;;;3.78;3.47;;;36.10;3.60;;;;;;5075334;28;20032;-52
2023/06/26 09:45:44;;;;;;;3.97;3.38;;;35.90;3.80;;;;;;5108785;28;20034;-52
2023/06/26 09:48:11;;;;;;;4.53;4.13;;;36.10;3.90;;;;;;5076644;28;20029;-52
2023/06/26 09:50:41;;;;;;;5.30;3.83;;;36.00;3.90;;;;;;5105950;28;20032;-49
2023/06/26 09:53:09;;;;;;;3.67;3.38;;;36.20;4.00;;;;;;5107219;28;20499;-52
2023/06/26 09:55:36;;;;;;;3.97;3.67;;;36.40;3.70;;;;;;5089610;28;20028;-50
2023/06/26 09:58:02;;;;;;;4.95;4.32;;;36.40;3.10;;;;;;5107117;28;20034;-52
2023/06/26 10:00:28;;;;;;;3.88;3.58;;;35.80;3.80;;;;;;5080524;28;20115;-51
2023/06/26 10:02:53;;;;;;;3.67;3.38;;;35.70;3.70;;;;;;5084941;28;20108;-49
2023/06/26 10:05:19;;;;;;;5.00;4.25;;;35.40;3.90;;;;;;5079429;28;20531;-49
2023/06/26 10:07:46;;;;;;;4.18;3.85;;;35.00;4.20;;;;;;5089677;28;20081;-50
2023/06/26 10:10:12;;;;;;;4.53;4.10;;;34.40;4.40;;;;;;5080925;28;20485;-54
2023/06/26 10:12:38;;;;;;;4.72;4.32;;;33.80;5.10;;;;;;5108190;28;20027;-47
2023/06/26 10:15:04;;;;;;;5.30;4.10;;;33.50;5.60;;;;;;5075862;28;20082;-48
2023/06/26 10:17:34;;;;;;;4.22;3.83;;;33.50;6.00;;;;;;5108082;28;20040;-53
2023/06/26 10:20:03;;;;;;;4.45;4.05;;;33.60;5.80;;;;;;5075681;28;20301;-48
2023/06/26 10:22:33;;;;;;;3.63;3.28;;;33.40;5.70;;;;;;5108598;28;20137;-50
2023/06/26 10:25:00;;;;;;;3.83;3.47;;;33.40;5.70;;;;;;5065292;28;20392;-48
2023/06/26 10:27:32;;;;;;;4.35;3.33;;;33.40;5.40;;;;;;5108176;28;20059;-48
2023/06/26 10:30:03;;;;;;;3.63;3.33;;;33.50;5.50;;;;;;5066408;28;20131;-50
2023/06/26 10:32:29;;;;;;;4.93;3.80;;;33.40;5.30;;;;;;5068453;28;20044;-50
2023/06/26 10:34:56;;;;;;;4.75;4.10;;;33.30;6.20;;;;;;5084635;28;20035;-48
2023/06/26 10:37:40;;;;;;;4.65;4.10;;;33.20;5.90;;;;;;5108096;28;20122;-49
2023/06/26 10:40:06;;;;;;;4.40;4.00;;;33.20;5.90;;;;;;5066477;28;20040;-49
2023/06/26 10:42:36;;;;;;;4.18;3.80;;;33.10;5.80;;;;;;5107533;28;20122;-49
2023/06/26 10:45:13;;;;;;;4.68;4.28;;;32.80;6.70;;;;;;5075559;28;20517;-49
2023/06/26 10:47:41;;;;;;;4.00;3.60;;;32.50;6.90;;;;;;5108344;28;20072;-49
2023/06/26 10:50:26;;;;;;;3.63;3.33;;;32.40;6.40;;;;;;5074770;28;20031;-51
2023/06/26 10:53:14;;;;;;;4.00;3.60;;;32.50;7.40;;;;;;5068336;28;20028;-49
2023/06/26 10:55:48;;;;;;;4.13;3.53;;;32.50;6.50;;;;;;5073036;28;20122;-47
2023/06/26 10:58:30;;;;;;;3.90;3.60;;;32.40;6.00;;;;;;5068414;28;20503;-50
2023/06/26 11:01:11;;;;;;;3.60;3.30;;;32.40;6.10;;;;;;5067729;28;20621;-47
2023/06/26 11:03:38;;;;;;;4.25;3.85;;;32.30;5.80;;;;;;5107474;28;20031;-49
2023/06/26 11:06:11;;;;;;;3.90;3.50;;;32.20;6.30;;;;;;5059315;28;20107;-50
2023/06/26 11:09:13;;;;;;;3.55;3.25;;;32.20;6.30;;;;;;5106522;28;20720;-49
2023/06/26 11:11:54;;;;;;;3.75;3.45;;;32.10;6.50;;;;;;5067472;28;20504;-48
2023/06/26 11:14:21;;;;;;;4.30;3.90;;;32.10;6.40;;;;;;5093944;28;20116;-47
2023/06/26 11:16:48;;;;;;;6.03;3.53;;;32.10;6.80;;;;;;5067977;28;20020;-50
2023/06/26 11:19:14;;;;;;;4.20;3.55;;;32.10;6.80;;;;;;5095778;28;20480;-52
2023/06/26 11:21:40;;;;;;;4.70;3.75;;;32.00;6.90;;;;;;5070389;28;20064;-52
2023/06/26 11:24:07;;;;;;;4.70;4.10;;;32.00;6.60;;;;;;5109180;28;20077;-47
2023/06/26 11:26:38;;;;;;;3.63;3.17;;;31.90;6.80;;;;;;5085866;28;20131;-49
2023/06/26 11:29:04;;;;;;;5.00;4.10;;;31.90;7.10;;;;;;5078689;28;20504;-51
2023/06/26 11:31:31;;;;;;;3.85;3.55;;;31.80;7.00;;;;;;5086539;28;20086;-47
2023/06/26 11:33:58;;;;;;;4.88;3.58;;;31.60;7.40;;;;;;5111596;28;20036;-50
2023/06/26 11:36:25;;;;;;;3.35;3.05;;;31.60;7.70;;;;;;5079250;28;20044;-50
2023/06/26 11:38:58;;;;;;;3.50;3.13;;;31.70;7.90;;;;;;5069732;28;20032;-50
2023/06/26 11:41:33;;;;;;;3.42;3.13;;;31.70;8.00;;;;;;5092683;28;20047;-51
2023/06/26 11:44:06;;;;;;;3.77;3.20;;;31.80;7.70;;;;;;5072201;28;20076;-47
2023/06/26 11:46:33;;;;;;;4.22;3.33;;;31.90;7.50;;;;;;5078475;28;20032;-52
2023/06/26 11:48:59;;;;;;;4.18;3.35;;;31.90;7.40;;;;;;5081931;28;20050;-47
2023/06/26 11:51:28;;;;;;;3.60;3.28;;;32.00;7.50;;;;;;5108426;28;20028;-51
2023/06/26 11:53:53;;;;;;;5.28;4.32;;;32.00;7.30;;;;;;5075576;28;20705;-50
2023/06/26 11:56:22;;;;;;;4.53;4.13;;;31.90;7.50;;;;;;5090291;28;20157;-47
2023/06/26 11:59:02;;;;;;;4.95;4.22;;;31.80;8.00;;;;;;5084703;28;20437;-52
2023/06/26 12:01:41;;;;;;;4.50;4.10;;;31.70;8.90;;;;;;5068962;28;20032;-49
2023/06/26 12:04:12;;;;;;;4.10;3.80;;;31.70;8.70;;;;;;5067260;28;20035;-50
2023/06/26 12:06:46;;;;;;;4.35;3.78;;;31.90;8.60;;;;;;5061759;28;20614;-51
2023/06/26 12:09:13;;;;;;;3.78;3.47;;;31.90;8.00;;;;;;5081312;28;20047;-50
2023/06/26 12:11:41;;;;;;;4.43;4.00;;;31.90;8.10;;;;;;5089994;28;20070;-50
2023/06/26 12:14:07;;;;;;;4.35;3.60;;;31.80;9.10;;;;;;5078161;28;20461;-48
2023/06/26 12:16:34;;;;;;;4.32;3.60;;;31.90;8.80;;;;;;5108245;28;20093;-51
2023/06/26 12:19:02;;;;;;;4.25;3.85;;;31.90;8.60;;;;;;5077184;28;20043;-49
2023/06/26 12:21:44;;;;;;;4.05;3.35;;;31.80;8.80;;;;;;5096171;28;20035;-50
2023/06/26 12:24:14;;;;;;;4.53;4.13;;;31.90;8.80;;;;;;5081014;28;20040;-49
2023/06/26 12:26:43;;;;;;;5.22;4.32;;;31.70;8.60;;;;;;5068530;28;20031;-50
2023/06/26 12:29:13;;;;;;;4.32;3.92;;;31.70;9.10;;;;;;5091111;28;20510;-49
2023/06/26 12:31:49;;;;;;;4.30;3.90;;;31.80;8.60;;;;;;5108775;28;20067;-51
2023/06/26 12:34:18;;;;;;;3.88;3.40;;;31.90;8.90;;;;;;5071650;28;20101;-53
2023/06/26 12:36:48;;;;;;;4.30;4.00;;;31.90;8.70;;;;;;5100552;28;20388;-49
2023/06/26 12:39:27;;;;;;;4.28;3.78;;;32.00;8.60;;;;;;5104249;28;20639;-49
2023/06/26 12:41:55;;;;;;;4.82;3.20;;;32.00;8.60;;;;;;5084720;28;20111;-52
2023/06/26 12:44:22;;;;;;;4.50;4.10;;;31.90;8.40;;;;;;5079600;28;20028;-48
2023/06/26 12:46:49;;;;;;;4.40;4.00;;;31.90;8.80;;;;;;5088320;28;20479;-47
2023/06/26 12:49:15;;;;;;;4.90;4.40;;;31.90;9.20;;;;;;5075618;28;20032;-51